createdAt,value
2017-12-16T00:01:20.759Z,63.23
2017-12-16T00:03:47.274Z,63.66
2017-12-16T00:06:13.728Z,63.30
2017-12-16T00:08:40.093Z,64.29
2017-12-16T00:11:06.857Z,64.00
2017-12-16T00:13:33.294Z,63.84
2017-12-16T00:15:59.676Z,64.10
2017-12-16T00:18:26.133Z,63.66
2017-12-16T00:20:52.645Z,63.44
2017-12-16T00:23:19.045Z,63.60
2017-12-16T00:25:45.657Z,63.74
2017-12-16T00:28:12.137Z,63.54
2017-12-16T00:30:38.666Z,63.47
2017-12-16T00:33:05.112Z,63.28
2017-12-16T00:35:31.578Z,63.06
2017-12-16T00:37:58.048Z,62.97
2017-12-16T00:40:24.448Z,61.95
2017-12-16T00:42:50.901Z,62.39
2017-12-16T00:45:17.422Z,62.54
2017-12-16T00:47:44.186Z,62.66
2017-12-16T00:50:10.621Z,63.29
2017-12-16T00:52:37.098Z,63.10
2017-12-16T00:55:03.555Z,63.00
2017-12-16T00:57:30.042Z,62.80
2017-12-16T00:59:56.588Z,63.33
2017-12-16T01:02:23.014Z,63.41
2017-12-16T01:04:49.444Z,62.75
2017-12-16T01:07:15.893Z,62.82
2017-12-16T01:09:42.317Z,62.40
2017-12-16T01:12:08.850Z,62.56
2017-12-16T01:14:35.250Z,62.96
2017-12-16T01:17:01.643Z,62.88
2017-12-16T01:19:28.174Z,63.02
2017-12-16T01:21:54.585Z,63.64
2017-12-16T01:24:20.979Z,63.72
2017-12-16T01:26:47.395Z,63.49
2017-12-16T01:29:13.837Z,63.64
2017-12-16T01:31:40.235Z,63.80
2017-12-16T01:34:19.107Z,63.92
2017-12-16T01:50:14.817Z,64.30
2017-12-16T01:52:41.233Z,64.04
2017-12-16T01:55:07.805Z,64.32
2017-12-16T01:57:34.289Z,64.37
2017-12-16T02:00:00.729Z,63.50
2017-12-16T02:02:27.393Z,63.20
2017-12-16T02:04:54.004Z,62.72
2017-12-16T02:07:20.501Z,62.25
2017-12-16T02:09:46.939Z,63.04
2017-12-16T02:12:13.413Z,62.59
2017-12-16T02:14:39.916Z,62.88
2017-12-16T02:17:06.355Z,62.61
2017-12-16T02:19:32.818Z,63.27
2017-12-16T02:21:59.289Z,63.35
2017-12-16T02:24:25.777Z,63.20
2017-12-16T02:26:52.257Z,62.58
2017-12-16T02:29:18.706Z,62.16
2017-12-16T02:31:45.137Z,62.39
2017-12-16T02:34:11.717Z,63.02
2017-12-16T02:36:38.148Z,63.70
2017-12-16T02:39:04.617Z,64.63
2017-12-16T02:41:31.119Z,65.33
2017-12-16T02:43:57.650Z,66.05
2017-12-16T02:46:24.114Z,64.58
2017-12-16T02:48:50.669Z,65.24
2017-12-16T02:51:17.166Z,64.60
2017-12-16T02:53:43.604Z,65.71
2017-12-16T02:56:10.130Z,65.85
2017-12-16T02:58:36.626Z,65.67
2017-12-16T03:01:03.135Z,65.19
2017-12-16T03:03:29.701Z,65.27
2017-12-16T03:05:56.261Z,65.36
2017-12-16T03:08:22.731Z,64.80
2017-12-16T03:10:49.285Z,65.09
2017-12-16T03:13:15.838Z,64.77
2017-12-16T03:15:43.530Z,65.93
2017-12-16T03:18:09.977Z,65.73
2017-12-16T03:20:36.546Z,65.88
2017-12-16T03:23:03.017Z,64.44
2017-12-16T03:25:29.517Z,65.06
2017-12-16T03:27:56.002Z,64.80
2017-12-16T03:30:22.495Z,64.87
2017-12-16T03:32:49.009Z,65.17
2017-12-16T03:35:15.522Z,64.75
2017-12-16T03:37:41.978Z,65.10
2017-12-16T03:40:08.682Z,64.74
2017-12-16T03:42:35.232Z,63.75
2017-12-16T03:45:01.833Z,64.50
2017-12-16T03:47:28.409Z,64.85
2017-12-16T03:49:54.917Z,63.98
2017-12-16T03:52:21.577Z,64.54
2017-12-16T03:54:48.197Z,65.72
2017-12-16T03:57:14.834Z,65.23
2017-12-16T03:59:41.350Z,64.40
2017-12-16T04:02:07.833Z,65.28
2017-12-16T04:04:34.280Z,65.48
2017-12-16T04:07:00.725Z,65.53
2017-12-16T04:09:27.232Z,64.94
2017-12-16T04:11:53.678Z,65.63
2017-12-16T04:14:20.139Z,65.09
2017-12-16T04:16:46.629Z,64.51
2017-12-16T04:19:13.122Z,65.30
2017-12-16T04:21:39.789Z,64.45
2017-12-16T04:24:06.369Z,64.95
2017-12-16T04:26:33.058Z,65.05
2017-12-16T04:28:59.546Z,64.98
2017-12-16T04:31:26.071Z,64.18
2017-12-16T04:33:52.868Z,65.36
2017-12-16T04:36:19.435Z,64.20
2017-12-16T04:38:45.953Z,63.92
2017-12-16T04:41:12.501Z,64.55
2017-12-16T04:43:39.142Z,64.57
2017-12-16T04:46:05.645Z,64.49
2017-12-16T04:48:32.187Z,64.26
2017-12-16T04:50:58.874Z,64.43
2017-12-16T04:53:25.358Z,65.04
2017-12-16T04:55:51.949Z,64.54
2017-12-16T04:58:18.413Z,64.20
2017-12-16T05:00:45.138Z,64.37
2017-12-16T05:03:11.709Z,64.45
2017-12-16T05:05:38.318Z,65.04
2017-12-16T05:08:05.064Z,64.66
2017-12-16T05:10:31.522Z,64.85
2017-12-16T05:12:57.994Z,64.15
2017-12-16T05:15:24.517Z,64.48
2017-12-16T05:17:51.993Z,64.15
2017-12-16T05:20:18.431Z,63.80
2017-12-16T05:22:45.093Z,64.58
2017-12-16T05:25:11.680Z,63.66
2017-12-16T05:27:38.145Z,64.70
2017-12-16T05:30:04.650Z,65.56
2017-12-16T05:32:31.084Z,65.21
2017-12-16T05:34:57.558Z,65.19
2017-12-16T05:37:24.162Z,65.82
2017-12-16T05:39:51.224Z,65.31
2017-12-16T05:42:17.677Z,65.20
2017-12-16T05:44:44.125Z,65.66
2017-12-16T05:47:10.561Z,63.86
2017-12-16T05:49:37.032Z,64.64
2017-12-16T05:52:03.554Z,65.10
2017-12-16T05:54:30.037Z,64.93
2017-12-16T05:56:56.529Z,65.13
2017-12-16T05:59:23.037Z,64.46
2017-12-16T06:01:49.494Z,65.02
2017-12-16T06:04:16.071Z,65.26
2017-12-16T06:06:42.565Z,65.88
2017-12-16T06:09:09.038Z,65.53
2017-12-16T06:11:36.233Z,66.25
2017-12-16T06:14:03.821Z,65.16
2017-12-16T06:16:30.424Z,65.70
2017-12-16T06:18:56.897Z,65.67
2017-12-16T06:21:23.426Z,65.61
2017-12-16T06:23:49.925Z,65.53
2017-12-16T06:26:16.642Z,67.82
2017-12-16T06:28:43.201Z,66.62
2017-12-16T06:31:09.653Z,66.94
2017-12-16T06:33:36.065Z,67.51
2017-12-16T06:36:02.668Z,67.61
2017-12-16T06:38:29.185Z,67.62
2017-12-16T06:40:55.866Z,65.85
2017-12-16T06:43:22.409Z,66.39
2017-12-16T06:45:48.906Z,66.18
2017-12-16T06:48:15.393Z,66.53
2017-12-16T06:50:42.069Z,64.73
2017-12-16T06:53:08.562Z,67.71
2017-12-16T06:55:35.052Z,68.05
2017-12-16T06:58:02.214Z,66.26
2017-12-16T07:00:28.654Z,66.02
2017-12-16T07:02:55.205Z,66.80
2017-12-16T07:05:21.749Z,66.41
2017-12-16T07:07:48.257Z,67.24
2017-12-16T07:10:14.761Z,65.87
2017-12-16T07:12:41.229Z,65.52
2017-12-16T07:15:07.864Z,64.81
2017-12-16T07:17:34.765Z,64.57
2017-12-16T07:20:01.978Z,64.36
2017-12-16T07:22:28.467Z,64.04
2017-12-16T07:24:54.987Z,63.94
2017-12-16T07:27:21.776Z,64.18
2017-12-16T07:29:48.455Z,63.76
2017-12-16T07:32:15.021Z,63.43
2017-12-16T07:34:41.694Z,63.82
2017-12-16T07:37:08.126Z,63.85
2017-12-16T07:39:34.564Z,62.42
2017-12-16T07:42:01.058Z,63.08
2017-12-16T07:44:27.496Z,63.12
2017-12-16T07:46:53.989Z,63.41
2017-12-16T07:49:20.441Z,62.91
2017-12-16T07:51:46.875Z,63.32
2017-12-16T07:54:13.310Z,63.29
2017-12-16T07:56:39.723Z,61.42
2017-12-16T07:59:06.877Z,62.90
2017-12-16T08:01:34.091Z,61.84
2017-12-16T08:04:01.376Z,62.04
2017-12-16T08:06:27.854Z,61.86
2017-12-16T08:08:54.433Z,61.79
2017-12-16T08:11:20.935Z,61.64
2017-12-16T08:13:47.366Z,61.13
2017-12-16T08:16:13.764Z,61.31
2017-12-16T08:18:40.250Z,60.90
2017-12-16T08:21:06.609Z,61.33
2017-12-16T08:23:33.057Z,60.62
2017-12-16T08:26:01.817Z,60.89
2017-12-16T08:28:28.181Z,61.08
2017-12-16T08:30:54.621Z,60.24
2017-12-16T08:33:21.100Z,60.71
2017-12-16T08:35:47.511Z,60.68
2017-12-16T08:38:13.881Z,61.02
2017-12-16T08:40:40.325Z,60.54
2017-12-16T08:43:06.763Z,61.03
2017-12-16T08:45:33.320Z,60.07
2017-12-16T08:47:59.785Z,60.83
2017-12-16T08:50:26.139Z,61.10
2017-12-16T08:52:52.551Z,59.94
2017-12-16T08:55:19.082Z,60.49
2017-12-16T08:57:45.926Z,61.64
2017-12-16T09:00:14.377Z,62.74
2017-12-16T09:02:40.869Z,62.17
2017-12-16T09:05:07.288Z,59.81
2017-12-16T09:07:33.860Z,58.13
2017-12-16T09:10:00.363Z,57.84
2017-12-16T09:12:26.758Z,58.55
2017-12-16T09:14:53.149Z,57.52
2017-12-16T09:17:19.751Z,55.28
2017-12-16T09:19:46.153Z,57.06
2017-12-16T09:22:12.654Z,57.30
2017-12-16T09:24:39.065Z,56.53
2017-12-16T09:27:05.442Z,55.35
2017-12-16T09:29:31.885Z,55.07
2017-12-16T09:31:58.320Z,53.86
2017-12-16T09:34:24.679Z,53.92
2017-12-16T09:36:51.258Z,55.25
2017-12-16T09:39:17.666Z,54.69
2017-12-16T09:41:43.996Z,53.29
2017-12-16T09:44:10.361Z,54.62
2017-12-16T09:46:36.770Z,54.82
2017-12-16T09:49:03.145Z,53.32
2017-12-16T09:51:29.512Z,52.83
2017-12-16T09:53:56.370Z,52.30
2017-12-16T09:56:22.891Z,53.40
2017-12-16T09:58:49.261Z,54.78
2017-12-16T10:01:16.464Z,54.23
2017-12-16T10:03:43.062Z,54.57
2017-12-16T10:06:09.538Z,51.35
2017-12-16T10:08:36.107Z,54.50
2017-12-16T10:11:02.580Z,50.42
2017-12-16T10:13:29.038Z,49.79
2017-12-16T10:15:55.585Z,50.98
2017-12-16T10:18:22.134Z,52.52
2017-12-16T10:20:56.544Z,52.24
2017-12-16T10:23:22.990Z,51.83
2017-12-16T10:25:49.505Z,49.37
2017-12-16T10:28:15.973Z,47.82
2017-12-16T10:30:42.365Z,50.39
2017-12-16T10:33:08.833Z,49.05
2017-12-16T10:35:35.838Z,53.27
2017-12-16T10:38:02.442Z,53.80
2017-12-16T10:40:28.850Z,49.58
2017-12-16T10:42:55.333Z,51.16
2017-12-16T10:45:21.746Z,49.90
2017-12-16T10:47:48.165Z,49.97
2017-12-16T10:50:14.630Z,49.83
2017-12-16T10:52:41.045Z,48.96
2017-12-16T10:55:07.474Z,52.43
2017-12-16T10:57:33.857Z,51.26
2017-12-16T11:00:00.318Z,49.85
2017-12-16T11:02:26.717Z,52.27
2017-12-16T11:04:53.156Z,50.25
2017-12-16T11:07:19.785Z,49.58
2017-12-16T11:09:46.166Z,51.52
2017-12-16T11:12:14.368Z,52.44
2017-12-16T11:14:40.757Z,47.31
2017-12-16T11:17:07.365Z,47.68
2017-12-16T11:19:33.780Z,49.13
2017-12-16T11:22:00.218Z,48.25
2017-12-16T11:24:26.614Z,50.61
2017-12-16T11:26:53.057Z,47.78
2017-12-16T11:29:19.480Z,47.83
2017-12-16T11:31:45.884Z,48.98
2017-12-16T11:34:12.298Z,47.89
2017-12-16T11:36:38.682Z,47.80
2017-12-16T11:39:05.041Z,46.95
2017-12-16T11:41:31.425Z,47.19
2017-12-16T11:43:57.792Z,49.07
2017-12-16T11:46:24.138Z,49.75
2017-12-16T11:48:50.553Z,49.82
2017-12-16T11:51:17.200Z,49.34
2017-12-16T11:53:43.565Z,49.89
2017-12-16T11:56:09.994Z,51.23
2017-12-16T11:58:36.400Z,50.72
2017-12-16T12:01:02.791Z,51.38
2017-12-16T12:03:29.222Z,50.98
2017-12-16T12:05:55.650Z,49.70
2017-12-16T12:08:22.068Z,49.84
2017-12-16T12:10:48.570Z,51.08
2017-12-16T12:13:14.925Z,51.01
2017-12-16T12:15:41.333Z,50.90
2017-12-16T12:18:07.769Z,51.42
2017-12-16T12:20:34.177Z,51.70
2017-12-16T12:23:00.682Z,52.40
2017-12-16T12:25:27.114Z,53.63
2017-12-16T12:27:53.477Z,54.13
2017-12-16T12:30:19.885Z,53.91
2017-12-16T12:32:47.266Z,53.66
2017-12-16T12:35:13.701Z,53.35
2017-12-16T12:37:40.073Z,54.61
2017-12-16T12:40:06.486Z,56.18
2017-12-16T12:42:32.852Z,55.70
2017-12-16T12:44:59.225Z,56.84
2017-12-16T12:47:25.729Z,58.47
2017-12-16T12:49:52.144Z,57.57
2017-12-16T12:52:18.482Z,56.94
2017-12-16T12:54:45.001Z,57.60
2017-12-16T12:57:11.345Z,57.34
2017-12-16T12:59:37.729Z,56.63
2017-12-16T13:02:04.201Z,56.77
2017-12-16T13:04:30.534Z,56.60
2017-12-16T13:06:57.185Z,56.49
2017-12-16T13:09:23.586Z,56.48
2017-12-16T13:11:49.949Z,57.00
2017-12-16T13:14:16.293Z,56.67
2017-12-16T13:16:42.694Z,57.30
2017-12-16T13:19:09.041Z,57.48
2017-12-16T13:21:35.408Z,57.67
2017-12-16T13:24:01.845Z,57.70
2017-12-16T13:26:28.267Z,58.49
2017-12-16T13:28:54.674Z,57.76
2017-12-16T13:31:21.054Z,57.37
2017-12-16T13:33:47.482Z,56.66
2017-12-16T13:36:13.889Z,56.76
2017-12-16T13:38:40.282Z,56.33
2017-12-16T13:41:06.650Z,56.01
2017-12-16T13:43:33.010Z,56.70
2017-12-16T13:45:59.413Z,56.99
2017-12-16T13:48:25.821Z,57.87
2017-12-16T13:50:52.215Z,57.66
2017-12-16T13:53:18.607Z,57.88
2017-12-16T13:55:44.953Z,57.03
2017-12-16T13:58:11.304Z,57.61
2017-12-16T14:00:37.747Z,57.87
2017-12-16T14:03:04.352Z,57.05
2017-12-16T14:05:30.719Z,57.12
2017-12-16T14:07:57.109Z,57.34
2017-12-16T14:10:23.473Z,57.20
2017-12-16T14:12:49.826Z,57.04
2017-12-16T14:15:16.238Z,56.56
2017-12-16T14:17:42.921Z,57.47
2017-12-16T14:20:09.276Z,57.47
2017-12-16T14:22:35.687Z,56.72
2017-12-16T14:25:03.764Z,56.89
2017-12-16T14:27:30.316Z,56.22
2017-12-16T14:29:59.074Z,56.80
2017-12-16T14:32:25.481Z,56.38
2017-12-16T14:34:51.865Z,56.73
2017-12-16T14:37:18.497Z,57.07
2017-12-16T14:39:44.979Z,56.93
2017-12-16T14:42:11.464Z,56.97
2017-12-16T14:44:37.886Z,58.12
2017-12-16T14:47:04.278Z,58.73
2017-12-16T14:49:30.651Z,59.14
2017-12-16T14:51:57.086Z,59.32
2017-12-16T14:54:23.489Z,59.56
2017-12-16T14:56:49.898Z,59.38
2017-12-16T14:59:16.294Z,59.42
2017-12-16T15:01:42.651Z,59.79
2017-12-16T15:04:09.045Z,59.86
2017-12-16T15:06:35.438Z,60.10
2017-12-16T15:09:01.814Z,60.34
2017-12-16T15:11:28.215Z,60.41
2017-12-16T15:13:54.600Z,61.37
2017-12-16T15:16:20.957Z,62.09
2017-12-16T15:18:47.330Z,61.25
2017-12-16T15:21:13.881Z,61.33
2017-12-16T15:23:40.301Z,60.62
2017-12-16T15:26:06.697Z,61.34
2017-12-16T15:28:33.106Z,61.10
2017-12-16T15:30:59.465Z,61.55
2017-12-16T15:33:25.836Z,61.73
2017-12-16T15:35:52.225Z,61.78
2017-12-16T15:38:18.577Z,62.03
2017-12-16T15:40:45.025Z,61.26
2017-12-16T15:43:11.575Z,62.07
2017-12-16T15:45:38.060Z,61.61
2017-12-16T15:48:04.474Z,61.75
2017-12-16T15:50:31.030Z,61.71
2017-12-16T15:52:57.437Z,62.74
2017-12-16T15:55:23.797Z,61.92
2017-12-16T15:57:50.205Z,61.37
2017-12-16T16:00:16.627Z,61.22
2017-12-16T16:02:43.153Z,60.94
2017-12-16T16:05:09.592Z,61.06
2017-12-16T16:07:35.974Z,60.75
2017-12-16T16:10:02.393Z,60.80
2017-12-16T16:12:28.880Z,60.25
2017-12-16T16:14:55.338Z,60.48
2017-12-16T16:17:21.733Z,60.08
2017-12-16T16:19:48.154Z,59.86
2017-12-16T16:22:14.687Z,59.49
2017-12-16T16:24:41.106Z,59.90
2017-12-16T16:27:07.554Z,60.19
2017-12-16T16:29:33.962Z,59.73
2017-12-16T16:32:00.333Z,60.50
2017-12-16T16:34:26.776Z,60.42
2017-12-16T16:36:53.142Z,59.90
2017-12-16T16:39:19.537Z,59.45
2017-12-16T16:41:46.049Z,59.68
2017-12-16T16:44:12.466Z,59.62
2017-12-16T16:46:38.829Z,59.87
2017-12-16T16:49:05.238Z,60.38
2017-12-16T16:51:31.653Z,59.96
2017-12-16T16:53:58.069Z,60.36
2017-12-16T16:56:24.497Z,60.61
2017-12-16T16:58:50.902Z,59.97
2017-12-16T17:01:17.337Z,60.05
2017-12-16T17:03:44.465Z,59.68
2017-12-16T17:06:10.897Z,59.88
2017-12-16T17:08:37.268Z,60.36
2017-12-16T17:11:04.561Z,60.36
2017-12-16T17:13:31.061Z,60.54
2017-12-16T17:15:57.564Z,60.73
2017-12-16T17:18:24.517Z,61.09
2017-12-16T17:20:50.932Z,60.86
2017-12-16T17:23:17.325Z,61.27
2017-12-16T17:25:43.756Z,61.12
2017-12-16T17:28:10.218Z,60.74
2017-12-16T17:30:36.646Z,62.54
2017-12-16T17:33:03.097Z,62.13
2017-12-16T17:35:29.539Z,63.45
2017-12-16T17:37:55.978Z,62.43
2017-12-16T17:40:22.445Z,63.91
2017-12-16T17:42:48.831Z,64.09
2017-12-16T17:45:15.206Z,64.85
2017-12-16T17:47:41.612Z,65.25
2017-12-16T17:50:08.054Z,65.33
2017-12-16T17:52:34.434Z,64.59
2017-12-16T17:55:00.865Z,65.84
2017-12-16T17:57:27.273Z,65.34
2017-12-16T17:59:53.658Z,65.35
2017-12-16T18:02:20.100Z,64.12
2017-12-16T18:04:46.526Z,65.17
2017-12-16T18:07:12.993Z,64.44
2017-12-16T18:09:39.418Z,64.00
2017-12-16T18:12:05.801Z,64.65
2017-12-16T18:14:32.234Z,63.15
2017-12-16T18:16:58.641Z,64.42
2017-12-16T18:19:25.047Z,65.27
2017-12-16T18:21:51.476Z,64.99
2017-12-16T18:24:17.898Z,63.69
2017-12-16T18:26:44.328Z,63.37
2017-12-16T18:29:11.212Z,63.56
2017-12-16T18:31:37.918Z,63.50
2017-12-16T18:34:05.780Z,62.87
2017-12-16T18:36:33.202Z,62.30
2017-12-16T18:39:01.862Z,62.23
2017-12-16T18:41:28.849Z,62.37
2017-12-16T18:43:56.264Z,62.34
2017-12-16T18:46:22.719Z,62.53
2017-12-16T18:48:50.435Z,62.50
2017-12-16T18:51:18.017Z,62.03
2017-12-16T18:53:44.765Z,62.17
2017-12-16T18:56:11.173Z,61.87
2017-12-16T18:58:37.565Z,60.83
2017-12-16T19:01:04.201Z,61.46
2017-12-16T19:03:30.609Z,61.30
2017-12-16T19:05:57.009Z,61.12
2017-12-16T19:08:23.554Z,60.73
2017-12-16T19:10:50.029Z,61.29
2017-12-16T19:13:16.417Z,61.28
2017-12-16T19:15:42.890Z,61.41
2017-12-16T19:18:09.279Z,60.99
2017-12-16T19:20:35.643Z,60.96
2017-12-16T19:23:02.121Z,60.26
2017-12-16T19:25:28.527Z,60.79
2017-12-16T19:27:54.933Z,61.15
2017-12-16T19:30:21.365Z,60.53
2017-12-16T19:32:47.774Z,60.13
2017-12-16T19:35:14.186Z,60.38
2017-12-16T19:37:40.642Z,60.66
2017-12-16T19:40:07.056Z,61.22
2017-12-16T19:42:34.064Z,61.23
2017-12-16T19:45:00.771Z,62.60
2017-12-16T19:47:27.248Z,63.06
2017-12-16T19:49:53.625Z,63.34
2017-12-16T19:52:20.017Z,63.70
2017-12-16T19:54:46.454Z,63.00
2017-12-16T19:57:12.861Z,63.13
2017-12-16T19:59:39.317Z,63.22
2017-12-16T20:02:05.697Z,63.52
2017-12-16T20:04:32.289Z,63.72
2017-12-16T20:06:58.913Z,63.39
2017-12-16T20:09:25.273Z,63.37
2017-12-16T20:11:51.642Z,63.44
2017-12-16T20:14:18.087Z,62.87
2017-12-16T20:16:44.457Z,63.01
2017-12-16T20:19:10.877Z,63.19
2017-12-16T20:21:37.285Z,62.96
2017-12-16T20:24:03.668Z,62.82
2017-12-16T20:26:30.049Z,63.08
2017-12-16T20:28:56.460Z,62.73
2017-12-16T20:31:22.845Z,61.52
2017-12-16T20:33:49.222Z,61.77
2017-12-16T20:36:15.702Z,62.54
2017-12-16T20:38:42.054Z,62.61
2017-12-16T20:41:08.549Z,63.07
2017-12-16T20:43:35.083Z,62.79
2017-12-16T20:46:01.549Z,63.77
2017-12-16T20:48:28.006Z,64.07
2017-12-16T20:50:54.458Z,63.76
2017-12-16T20:53:20.998Z,64.25
2017-12-16T20:55:47.385Z,64.47
2017-12-16T20:58:13.893Z,64.93
2017-12-16T21:00:40.424Z,64.47
2017-12-16T21:03:06.834Z,65.17
2017-12-16T21:05:33.538Z,64.84
2017-12-16T21:07:59.955Z,64.16
2017-12-16T21:10:26.330Z,65.31
2017-12-16T21:12:52.706Z,66.17
2017-12-16T21:15:19.059Z,66.71
2017-12-16T21:17:46.012Z,66.26
2017-12-16T21:20:12.625Z,66.09
2017-12-16T21:22:39.023Z,65.95
2017-12-16T21:25:05.393Z,65.46
2017-12-16T21:27:31.772Z,64.85
2017-12-16T21:29:58.130Z,65.96
2017-12-16T21:32:24.470Z,66.07
2017-12-16T21:35:00.614Z,64.79
2017-12-16T21:37:28.894Z,64.35
2017-12-16T21:39:55.294Z,65.24
2017-12-16T21:42:21.712Z,65.54
2017-12-16T21:44:48.127Z,64.41
2017-12-16T21:47:14.589Z,64.54
2017-12-16T21:49:41.018Z,64.33
2017-12-16T21:52:07.437Z,64.32
2017-12-16T21:54:33.813Z,64.99
2017-12-16T21:57:00.205Z,65.10
2017-12-16T21:59:26.554Z,64.72
2017-12-16T22:01:52.970Z,65.90
2017-12-16T22:04:19.351Z,65.64
2017-12-16T22:06:45.707Z,65.69
2017-12-16T22:09:12.112Z,67.06
2017-12-16T22:11:38.517Z,66.99
2017-12-16T22:14:04.878Z,66.29
2017-12-16T22:16:31.222Z,66.47
2017-12-16T22:18:57.610Z,65.69
2017-12-16T22:21:24.096Z,67.58
2017-12-16T22:23:50.462Z,68.00
2017-12-16T22:26:16.837Z,66.57
2017-12-16T22:28:43.189Z,66.78
2017-12-16T22:31:09.529Z,67.44
2017-12-16T22:33:35.909Z,66.22
2017-12-16T22:36:02.270Z,68.22
2017-12-16T22:38:28.670Z,67.70
2017-12-16T22:40:55.134Z,66.26
2017-12-16T22:43:21.533Z,68.43
2017-12-16T22:45:47.921Z,67.71
2017-12-16T22:48:14.357Z,68.78
2017-12-16T22:50:40.757Z,68.46
2017-12-16T22:53:07.141Z,68.82
2017-12-16T22:55:33.584Z,68.24
2017-12-16T22:58:00.016Z,68.21
2017-12-16T23:00:26.389Z,67.73
2017-12-16T23:02:52.870Z,66.93
2017-12-16T23:05:19.261Z,67.57
2017-12-16T23:07:45.720Z,66.90
2017-12-16T23:10:12.168Z,66.68
2017-12-16T23:12:38.605Z,67.47
2017-12-16T23:15:05.178Z,68.04
2017-12-16T23:17:31.680Z,67.66
2017-12-16T23:19:58.127Z,66.05
2017-12-16T23:22:24.546Z,67.79
2017-12-16T23:24:51.025Z,66.05
2017-12-16T23:27:17.510Z,66.51
2017-12-16T23:29:43.941Z,66.28
2017-12-16T23:32:10.432Z,67.31
2017-12-16T23:34:36.891Z,66.97
2017-12-16T23:37:03.321Z,67.95
2017-12-16T23:39:29.793Z,66.97
2017-12-16T23:41:56.225Z,67.37
2017-12-16T23:44:22.662Z,66.53
2017-12-16T23:46:49.137Z,66.23
2017-12-16T23:49:15.565Z,68.57
2017-12-16T23:51:41.997Z,68.70
2017-12-16T23:54:08.473Z,66.41
2017-12-16T23:56:34.919Z,68.32
2017-12-16T23:59:01.402Z,68.88
